Schenectady, NY (12309)

12:04 AM EDT on June 03, 2015 (GMT -0400)
Avon Crest, Niskayuna | | Change Station
CLOSE
Current Station
Personal Weather Station
Location: New York, NY
Elevation: 335 ft
Nearby Weather Stations

Elev 335 ft 42.78 °N, 73.87 °W | Updated 3 minutes ago

Overcast
Overcast
54.2 °F
Feels Like 54.2 °F
N
2.0
Wind Variable Wind from NNE
Gusts 2.0 mph

Today
High -- | Low -- °F
--% Chance of Precip.
Yesterday
High -- | Low -- °F
Precip. -- in
5:19 AM 8:28 PM
Full, 100% visible
Pressure 30.20 in
Visibility 10.0 miles
Clouds Few 1500 ft
Mostly Cloudy 2200 ft
Overcast 4400 ft
Dew Point 50 °F
Humidity 84%
Rainfall 0.01 in
Snow Depth Not available.
UV 0 out of 12
Pollen 5.70 out of 12
Air Quality Not available.
Flu Activity Sporadic
METAR KALB 030351Z 02007KT 10SM FEW015 BKN022 OVC044 13/09 A3020 RMK AO2 SLP227 T01330089

More Conditions Fewer Conditions

Pressure 30.20 in
Visibility 10.0 miles
Clouds Few 1500 ft
Mostly Cloudy 2200 ft
Overcast 4400 ft
Dew Point 50 °F
Humidity 84%
Rainfall 0.01 in
Snow Depth Not available.
UV 0 out of 12
Pollen 5.70 out of 12
Air Quality Not available.
Flu Activity Sporadic
METAR KALB 030351Z 02007KT 10SM FEW015 BKN022 OVC044 13/09 A3020 RMK AO2 SLP227 T01330089

More Conditions Fewer Conditions

10-Day Weather Forecast

×

Almanac

Astronomy

Jun. 03, 2015 Rise Set
Actual Time
Civil Twilight
Nautical Twilight
Astronomical Twilight
Moon
Length of Visible Light
Length of Day
Tomorrow will be .
, % of the Moon is Illuminated

Today's Extremes

State Highs State Lows

Community

WunderPhotos

Upload Photos

1,826,155 photos uploaded!

WunderBlogs® & News

Nearby

Air Quality

  Air Quality AQ Index Pollutant
Not available.

Snow Depth

Station Depth Elevation

Earthquake Activity

City Distance Mag. Time & Date
Minimum magnitude displayed is 2.5.

Coastal Water Temperatures

Place Temperature

Stations

Nearby Weather Stations

Station Location Temp. Windchill Dew Point Humidity Wind Precip. Elev Updated Type